createdAt,value
2023-06-17T12:14:17.076Z,66.50
2023-06-17T12:16:46.029Z,68.00
2023-06-17T12:19:21.901Z,68.00
2023-06-17T12:21:49.836Z,68.10
2023-06-17T12:24:18.725Z,68.20
2023-06-17T12:26:46.765Z,67.90
2023-06-17T12:29:25.634Z,67.80
2023-06-17T12:31:54.651Z,67.80
2023-06-17T12:34:22.686Z,67.60
2023-06-17T12:36:50.770Z,67.50
2023-06-17T12:39:18.712Z,67.70
2023-06-17T12:41:46.670Z,67.80
2023-06-17T12:44:18.686Z,67.90
2023-06-17T12:46:47.046Z,67.80
2023-06-17T12:49:15.011Z,68.20
2023-06-17T12:51:42.938Z,68.00
2023-06-17T12:54:10.953Z,68.00
2023-06-17T12:56:40.650Z,68.00
2023-06-17T12:59:08.689Z,68.30
2023-06-17T13:01:38.075Z,68.30
2023-06-17T13:04:06.176Z,68.20
2023-06-17T13:06:34.260Z,68.30
2023-06-17T13:09:02.264Z,68.30
2023-06-17T13:11:30.197Z,67.60
2023-06-17T13:13:58.464Z,68.20
2023-06-17T13:16:26.446Z,67.80
2023-06-17T13:18:57.159Z,68.30
2023-06-17T13:21:25.570Z,68.30
2023-06-17T13:23:53.623Z,68.00
2023-06-17T13:26:29.262Z,68.10
2023-06-17T13:28:57.332Z,67.90
2023-06-17T13:31:25.290Z,67.80
2023-06-17T13:33:53.264Z,67.70
2023-06-17T13:36:22.599Z,67.90
2023-06-17T13:38:50.621Z,67.10
2023-06-17T13:41:18.515Z,67.60
2023-06-17T13:43:46.683Z,67.30
2023-06-17T13:46:14.788Z,67.50
2023-06-17T13:48:43.108Z,67.40
2023-06-17T13:51:11.025Z,67.50
2023-06-17T13:53:40.310Z,67.40
2023-06-17T13:56:08.209Z,67.10
2023-06-17T13:58:36.319Z,63.60
2023-06-17T14:01:04.283Z,67.10
2023-06-17T14:03:32.680Z,65.30
2023-06-17T14:06:00.714Z,65.80
2023-06-17T14:08:28.757Z,66.50
2023-06-17T14:10:58.815Z,66.10
2023-06-17T14:13:27.048Z,67.10
2023-06-17T14:15:55.001Z,67.10
2023-06-17T14:18:22.977Z,66.90
2023-06-17T14:20:50.965Z,66.40
2023-06-17T14:23:18.870Z,66.60
2023-06-17T14:25:46.875Z,66.80
2023-06-17T14:28:17.431Z,66.70
2023-06-17T14:30:45.596Z,66.70
2023-06-17T14:33:13.526Z,66.90
2023-06-17T14:35:43.349Z,66.90
2023-06-17T14:38:11.582Z,67.00
2023-06-17T14:40:39.727Z,66.90
2023-06-17T14:43:08.335Z,66.80
2023-06-17T14:45:37.873Z,66.80
2023-06-17T14:48:06.365Z,66.10
2023-06-17T14:50:34.372Z,66.90
2023-06-17T14:53:02.556Z,67.00
2023-06-17T14:55:30.487Z,66.90
2023-06-17T14:57:58.373Z,66.90
2023-06-17T15:00:26.331Z,66.90
2023-06-17T15:02:58.092Z,66.90
2023-06-17T15:05:28.488Z,66.90
2023-06-17T15:07:56.465Z,67.00
2023-06-17T15:10:24.836Z,67.00
2023-06-17T15:12:52.904Z,66.90
2023-06-17T15:15:21.037Z,67.10
2023-06-17T15:17:49.293Z,67.30
2023-06-17T15:20:20.829Z,67.20
2023-06-17T15:22:49.139Z,67.30
2023-06-17T15:25:17.171Z,67.50
2023-06-17T15:27:45.138Z,67.20
2023-06-17T15:30:13.941Z,66.90
2023-06-17T15:32:42.474Z,66.80
2023-06-17T15:35:10.787Z,67.20
2023-06-17T15:37:40.134Z,67.20
2023-06-17T15:40:09.410Z,67.20
2023-06-17T15:42:39.496Z,67.20
2023-06-17T15:45:08.240Z,68.00
2023-06-17T15:47:36.228Z,67.40
2023-06-17T15:50:04.308Z,66.60
2023-06-17T15:52:32.223Z,66.90
2023-06-17T15:55:02.518Z,66.90
2023-06-17T15:57:30.509Z,66.70
2023-06-17T15:59:58.836Z,66.60
2023-06-17T16:02:27.836Z,66.70
2023-06-17T16:04:55.864Z,66.20
2023-06-17T16:07:23.916Z,66.60
2023-06-17T16:09:53.558Z,66.70
2023-06-17T16:12:23.935Z,66.20
2023-06-17T16:14:51.908Z,66.80
2023-06-17T16:17:21.503Z,66.90
2023-06-17T16:19:49.528Z,66.90
2023-06-17T16:22:17.866Z,66.60
2023-06-17T16:24:45.789Z,67.40
2023-06-17T16:27:13.707Z,66.70
2023-06-17T16:29:43.073Z,67.00
2023-06-17T16:32:11.203Z,66.50
2023-06-17T16:34:39.491Z,66.50
2023-06-17T16:37:07.673Z,67.50
2023-06-17T16:39:35.668Z,66.60
2023-06-17T16:42:06.907Z,66.40
2023-06-17T16:44:35.984Z,66.60
2023-06-17T16:47:06.255Z,66.60
2023-06-17T16:49:34.160Z,66.70
2023-06-17T16:52:02.223Z,66.50
2023-06-17T16:54:30.142Z,66.80
2023-06-17T16:56:58.047Z,67.00
2023-06-17T16:59:26.072Z,66.90
2023-06-17T17:01:54.259Z,67.00
2023-06-17T17:04:23.557Z,66.10
2023-06-17T17:06:51.474Z,65.50
2023-06-17T17:09:19.668Z,65.30
2023-06-17T17:11:47.577Z,64.30
2023-06-17T17:14:15.617Z,64.00
2023-06-17T17:16:43.599Z,63.50
2023-06-17T17:19:11.538Z,62.90
2023-06-17T17:21:40.848Z,62.30
2023-06-17T17:24:08.902Z,62.00
2023-06-17T17:26:36.887Z,60.90
2023-06-17T17:29:04.963Z,61.30
2023-06-17T17:31:32.943Z,61.90
2023-06-17T17:34:01.717Z,62.10
2023-06-17T17:36:29.713Z,62.40
2023-06-17T17:39:00.087Z,62.80
2023-06-17T17:41:29.756Z,63.30
2023-06-17T17:43:57.733Z,64.10
2023-06-17T17:46:26.148Z,63.30
2023-06-17T17:48:54.179Z,62.90
2023-06-17T17:51:22.125Z,59.30
2023-06-17T17:53:50.030Z,59.80
2023-06-17T17:56:19.471Z,59.60
2023-06-17T17:58:47.583Z,56.10
2023-06-17T18:01:15.606Z,56.30
2023-06-17T18:03:43.669Z,56.90
2023-06-17T18:06:11.750Z,58.40
2023-06-17T18:08:39.658Z,59.70
2023-06-17T18:11:07.571Z,59.00
2023-06-17T18:13:36.848Z,60.90
2023-06-17T18:16:05.084Z,61.50
2023-06-17T18:18:33.082Z,62.60
2023-06-17T18:21:01.009Z,62.60
2023-06-17T18:23:28.941Z,62.90
2023-06-17T18:25:57.772Z,63.40
2023-06-17T18:28:25.646Z,63.90
2023-06-17T18:30:54.929Z,64.20
2023-06-17T18:33:22.976Z,64.00
2023-06-17T18:35:51.134Z,64.80
2023-06-17T18:38:19.044Z,62.70
2023-06-17T18:40:47.432Z,62.40
2023-06-17T18:43:15.522Z,58.90
2023-06-17T18:45:43.390Z,58.00
2023-06-17T18:48:12.638Z,62.30
2023-06-17T18:50:40.638Z,59.40
2023-06-17T18:53:08.622Z,58.90
2023-06-17T18:55:38.440Z,58.10
2023-06-17T18:58:06.331Z,57.60
2023-06-17T19:00:35.090Z,57.20
2023-06-17T19:03:03.523Z,57.10
2023-06-17T19:05:33.032Z,56.60
2023-06-17T19:08:01.042Z,56.10
2023-06-17T19:10:28.997Z,55.30
2023-06-17T19:12:57.044Z,55.20
2023-06-17T19:15:27.354Z,55.00
2023-06-17T19:17:55.962Z,55.00
2023-06-17T19:20:24.291Z,56.10
2023-06-17T19:22:53.561Z,55.90
2023-06-17T19:25:21.471Z,56.40
2023-06-17T19:27:49.370Z,57.20
2023-06-17T19:30:17.325Z,57.50
2023-06-17T19:32:45.257Z,57.70
2023-06-17T19:35:13.482Z,57.80
2023-06-17T19:37:41.907Z,58.10
2023-06-17T19:40:12.912Z,58.30
2023-06-17T19:42:40.789Z,58.30
2023-06-17T19:45:10.810Z,58.70
2023-06-17T19:47:38.952Z,59.00
2023-06-17T19:50:08.023Z,59.30
2023-06-17T19:52:35.933Z,59.60
2023-06-17T19:55:04.090Z,59.30
2023-06-17T19:57:33.567Z,59.30
2023-06-17T20:00:01.493Z,58.90
2023-06-17T20:02:29.515Z,59.10
2023-06-17T20:04:57.484Z,59.40
2023-06-17T20:07:25.580Z,59.10
2023-06-17T20:09:53.738Z,59.00
2023-06-17T20:12:21.643Z,58.80
2023-06-17T20:14:51.400Z,59.50
2023-06-17T20:17:19.316Z,59.40
2023-06-17T20:19:47.250Z,59.50
2023-06-17T20:22:15.182Z,59.70
2023-06-17T20:24:43.181Z,60.00
2023-06-17T20:27:11.156Z,60.10
2023-06-17T20:29:39.162Z,60.50
2023-06-17T20:32:09.021Z,60.90
2023-06-17T20:34:36.957Z,61.10
2023-06-17T20:37:05.493Z,61.10
2023-06-17T20:39:33.437Z,61.00
2023-06-17T20:42:01.336Z,61.00
2023-06-17T20:44:30.750Z,59.90
2023-06-17T20:47:00.676Z,59.50
2023-06-17T20:49:31.235Z,59.30
2023-06-17T20:52:00.368Z,59.10
2023-06-17T20:54:28.578Z,59.00
2023-06-17T20:56:56.635Z,59.60
2023-06-17T20:59:25.444Z,59.70
2023-06-17T21:01:53.729Z,59.80
2023-06-17T21:04:21.682Z,60.00
2023-06-17T21:06:50.986Z,60.20
2023-06-17T21:09:18.929Z,60.90
2023-06-17T21:11:46.905Z,60.70
2023-06-17T21:14:14.864Z,60.50
2023-06-17T21:16:42.906Z,60.50
2023-06-17T21:19:10.882Z,60.70
2023-06-17T21:21:38.839Z,60.70
2023-06-17T21:24:08.934Z,60.80
2023-06-17T21:26:36.870Z,60.80
2023-06-17T21:29:04.930Z,60.90
2023-06-17T21:31:32.858Z,61.00
2023-06-17T21:34:00.827Z,61.00
2023-06-17T21:36:29.647Z,61.00
2023-06-17T21:38:57.547Z,61.20
2023-06-17T21:41:27.658Z,61.10
2023-06-17T21:43:55.626Z,60.90
2023-06-17T21:46:27.103Z,60.20
2023-06-17T21:48:55.117Z,59.90
2023-06-17T21:51:23.054Z,59.90
2023-06-17T21:53:50.970Z,60.00
2023-06-17T21:56:19.005Z,60.10
2023-06-17T21:58:48.284Z,60.10
2023-06-17T22:01:16.560Z,60.40
2023-06-17T22:03:44.774Z,61.20
2023-06-17T22:06:12.743Z,61.20
2023-06-17T22:08:43.686Z,61.10
2023-06-17T22:11:12.520Z,61.10
2023-06-17T22:13:40.740Z,61.10
2023-06-17T22:16:12.420Z,61.20
2023-06-17T22:18:40.551Z,61.20
2023-06-17T22:21:08.530Z,61.20
2023-06-17T22:23:36.416Z,61.30
2023-06-17T22:26:04.345Z,61.50
2023-06-17T22:28:32.289Z,61.60
2023-06-17T22:31:00.184Z,61.70
2023-06-17T22:33:29.458Z,61.80
2023-06-17T22:35:57.421Z,62.50
